createdAt,value
2022-12-29T00:00:01.386Z,57.30
2022-12-29T00:02:28.021Z,55.40
2022-12-29T00:04:54.727Z,55.22
2022-12-29T00:07:21.247Z,55.39
2022-12-29T00:09:47.819Z,56.35
2022-12-29T00:12:14.334Z,56.41
2022-12-29T00:14:59.534Z,56.96
2022-12-29T00:17:26.047Z,55.69
2022-12-29T00:20:11.319Z,55.08
2022-12-29T00:22:56.527Z,54.04
2022-12-29T00:25:41.662Z,54.90
2022-12-29T00:28:28.290Z,55.95
2022-12-29T00:31:17.392Z,55.43
2022-12-29T00:34:03.472Z,55.93
2022-12-29T00:36:35.483Z,55.51
2022-12-29T00:39:27.232Z,54.81
2022-12-29T00:42:12.209Z,54.13
2022-12-29T00:44:38.765Z,53.42
2022-12-29T00:47:05.480Z,54.84
2022-12-29T00:49:33.334Z,54.72
2022-12-29T00:52:06.997Z,52.92
2022-12-29T00:54:35.764Z,52.75
2022-12-29T00:57:03.128Z,54.02
2022-12-29T00:59:30.907Z,53.88
2022-12-29T01:01:58.227Z,53.34
2022-12-29T01:04:27.154Z,53.16
2022-12-29T01:06:54.175Z,53.95
2022-12-29T01:09:40.019Z,52.60
2022-12-29T01:12:09.280Z,52.97
2022-12-29T01:14:36.983Z,52.90
2022-12-29T01:17:04.494Z,52.78
2022-12-29T01:19:31.503Z,54.21
2022-12-29T01:21:58.536Z,52.89
2022-12-29T01:24:27.020Z,54.19
2022-12-29T01:26:55.346Z,54.41
2022-12-29T01:29:22.341Z,53.66
2022-12-29T01:31:50.637Z,53.71
2022-12-29T01:34:18.255Z,53.42
2022-12-29T01:36:44.851Z,54.78
2022-12-29T01:39:12.706Z,54.43
2022-12-29T01:41:39.380Z,56.91
2022-12-29T01:44:43.336Z,54.89
2022-12-29T01:47:09.956Z,55.11
2022-12-29T01:49:36.675Z,55.20
2022-12-29T01:52:08.996Z,56.28
2022-12-29T01:54:44.637Z,55.29
2022-12-29T01:57:26.116Z,55.94
2022-12-29T02:00:11.761Z,56.23
2022-12-29T02:02:47.578Z,56.05
2022-12-29T02:05:21.047Z,55.19
2022-12-29T02:07:51.415Z,55.22
2022-12-29T02:10:20.746Z,56.04
2022-12-29T02:12:48.105Z,55.56
2022-12-29T02:15:15.919Z,55.89
2022-12-29T02:17:48.835Z,56.08
2022-12-29T02:20:42.963Z,56.19
2022-12-29T02:23:19.620Z,55.44
2022-12-29T02:26:31.106Z,55.68
2022-12-29T02:29:05.532Z,55.64
2022-12-29T02:31:44.472Z,56.12
2022-12-29T02:34:38.350Z,57.06
2022-12-29T02:37:12.584Z,56.64
2022-12-29T02:39:52.213Z,56.81
2022-12-29T02:42:31.760Z,57.40
2022-12-29T02:45:25.203Z,57.24
2022-12-29T02:48:22.324Z,58.55
2022-12-29T02:50:58.745Z,57.32
2022-12-29T02:53:46.959Z,57.41
2022-12-29T02:56:13.701Z,57.87
2022-12-29T02:58:41.164Z,57.71
2022-12-29T03:01:13.807Z,58.00
2022-12-29T03:03:47.098Z,58.60
2022-12-29T03:06:23.344Z,58.80
2022-12-29T03:09:28.407Z,58.96
2022-12-29T03:12:24.577Z,58.41
2022-12-29T03:15:21.330Z,58.30
2022-12-29T03:18:07.060Z,59.37
2022-12-29T03:20:50.224Z,59.31
2022-12-29T03:23:18.554Z,59.82
2022-12-29T03:25:50.563Z,59.84
2022-12-29T03:28:33.049Z,59.96
2022-12-29T03:31:01.369Z,59.85
2022-12-29T03:33:30.988Z,59.95
2022-12-29T03:36:03.229Z,59.07
2022-12-29T03:38:44.633Z,59.06
2022-12-29T03:41:16.812Z,59.49
2022-12-29T03:43:43.931Z,58.77
2022-12-29T03:46:10.664Z,58.47
2022-12-29T03:48:40.434Z,58.37
2022-12-29T03:51:07.062Z,58.21
2022-12-29T03:53:34.174Z,58.56
2022-12-29T03:56:00.938Z,58.62
2022-12-29T03:58:27.508Z,58.90
2022-12-29T04:01:16.723Z,58.14
2022-12-29T04:03:45.490Z,58.23
2022-12-29T04:06:12.433Z,58.06
2022-12-29T04:08:45.814Z,58.55
2022-12-29T04:11:12.867Z,58.42
2022-12-29T04:13:41.834Z,58.49
2022-12-29T04:16:10.505Z,59.37
2022-12-29T04:18:37.108Z,59.52
2022-12-29T04:21:04.527Z,60.05
2022-12-29T04:23:36.100Z,59.22
2022-12-29T04:26:05.008Z,60.60
2022-12-29T04:28:32.351Z,60.08
2022-12-29T04:31:18.788Z,59.89
2022-12-29T04:33:46.642Z,60.12
2022-12-29T04:36:13.282Z,60.50
2022-12-29T04:38:39.855Z,60.27
2022-12-29T04:41:06.659Z,60.50
2022-12-29T04:43:35.660Z,60.31
2022-12-29T04:46:20.942Z,60.36
2022-12-29T04:48:52.486Z,60.52
2022-12-29T04:51:28.345Z,60.55
2022-12-29T04:53:54.935Z,61.04
2022-12-29T04:56:23.294Z,61.45
2022-12-29T04:58:49.851Z,61.37
2022-12-29T05:01:16.528Z,61.20
2022-12-29T05:03:44.019Z,60.64
2022-12-29T05:06:10.886Z,61.17
2022-12-29T05:08:39.117Z,60.69
2022-12-29T05:11:06.261Z,61.75
2022-12-29T05:13:32.815Z,60.77
2022-12-29T05:16:00.329Z,59.93
2022-12-29T05:18:28.074Z,59.56
2022-12-29T05:20:54.621Z,59.56
2022-12-29T05:23:23.187Z,60.18
2022-12-29T05:25:55.934Z,59.71
2022-12-29T05:28:42.793Z,59.42
2022-12-29T05:31:13.458Z,59.82
2022-12-29T05:33:40.106Z,58.76
2022-12-29T05:36:08.868Z,59.09
2022-12-29T05:38:37.790Z,59.32
2022-12-29T05:41:15.166Z,58.42
2022-12-29T05:43:42.097Z,58.40
2022-12-29T05:46:37.708Z,58.32
2022-12-29T05:49:07.587Z,58.65
2022-12-29T05:51:52.672Z,58.70
2022-12-29T05:54:19.280Z,58.63
2022-12-29T05:56:46.429Z,57.97
2022-12-29T05:59:13.441Z,58.30
2022-12-29T06:01:40.564Z,57.90
2022-12-29T06:04:07.784Z,57.67
2022-12-29T06:06:34.483Z,57.68
2022-12-29T06:09:01.107Z,58.53
2022-12-29T06:11:28.895Z,57.72
2022-12-29T06:13:58.770Z,57.08
2022-12-29T06:16:25.404Z,57.43
2022-12-29T06:18:55.394Z,57.81
2022-12-29T06:21:22.661Z,57.15
2022-12-29T06:23:49.232Z,57.43
2022-12-29T06:26:15.777Z,59.15
2022-12-29T06:28:43.152Z,57.39
2022-12-29T06:31:11.447Z,56.40
2022-12-29T06:33:38.987Z,56.60
2022-12-29T06:36:05.777Z,56.71
2022-12-29T06:38:32.410Z,58.02
2022-12-29T06:40:59.651Z,56.54
2022-12-29T06:43:36.866Z,57.41
2022-12-29T06:46:13.370Z,57.76
2022-12-29T06:48:40.046Z,57.29
2022-12-29T06:51:06.538Z,56.90
2022-12-29T06:53:33.032Z,56.70
2022-12-29T06:55:59.547Z,58.14
2022-12-29T06:58:26.052Z,58.06
2022-12-29T07:00:52.770Z,57.59
2022-12-29T07:03:19.396Z,57.36
2022-12-29T07:05:45.960Z,58.63
2022-12-29T07:08:12.487Z,57.95
2022-12-29T07:10:39.055Z,56.96
2022-12-29T07:13:05.567Z,57.32
2022-12-29T07:15:32.072Z,58.23
2022-12-29T07:17:58.569Z,57.31
2022-12-29T07:20:27.577Z,57.62
2022-12-29T07:22:54.364Z,57.12
2022-12-29T07:25:20.891Z,59.37
2022-12-29T07:27:47.499Z,56.93
2022-12-29T07:30:14.097Z,58.90
2022-12-29T07:32:40.662Z,55.48
2022-12-29T07:35:07.763Z,56.89
2022-12-29T07:37:35.558Z,56.93
2022-12-29T07:40:04.286Z,55.45
2022-12-29T07:42:32.052Z,56.72
2022-12-29T07:44:59.859Z,55.37
2022-12-29T07:47:31.074Z,55.66
2022-12-29T07:49:57.575Z,54.79
2022-12-29T07:52:24.147Z,54.13
2022-12-29T07:54:53.503Z,54.55
2022-12-29T07:57:20.077Z,53.39
2022-12-29T07:59:46.899Z,54.47
2022-12-29T08:02:13.650Z,52.95
2022-12-29T08:04:40.310Z,54.28
2022-12-29T08:07:06.833Z,53.72
2022-12-29T08:09:33.349Z,53.78
2022-12-29T08:12:07.254Z,54.47
2022-12-29T08:14:59.075Z,54.73
2022-12-29T08:17:25.643Z,55.58
2022-12-29T08:19:52.217Z,55.79
2022-12-29T08:22:18.741Z,56.21
2022-12-29T08:24:52.365Z,57.37
2022-12-29T08:28:14.631Z,57.86
2022-12-29T08:30:41.245Z,60.46
2022-12-29T08:33:07.855Z,59.79
2022-12-29T08:35:34.678Z,61.21
2022-12-29T08:38:01.174Z,61.80
2022-12-29T08:40:27.855Z,61.64
2022-12-29T08:42:54.467Z,61.99
2022-12-29T08:45:21.298Z,61.43
2022-12-29T08:47:47.845Z,61.95
2022-12-29T08:50:14.500Z,62.49
2022-12-29T08:52:44.977Z,61.50
2022-12-29T08:55:22.956Z,60.60
2022-12-29T08:57:54.926Z,59.97
2022-12-29T09:00:21.752Z,60.53
2022-12-29T09:02:48.532Z,60.84
2022-12-29T09:05:15.330Z,59.39
2022-12-29T09:07:42.251Z,60.38
2022-12-29T09:10:09.143Z,59.26
2022-12-29T09:12:36.733Z,59.96
2022-12-29T09:15:04.605Z,60.39
2022-12-29T09:17:44.407Z,59.60
2022-12-29T09:20:16.468Z,60.46
2022-12-29T09:22:43.731Z,60.26
2022-12-29T09:25:11.455Z,59.17
2022-12-29T09:27:38.196Z,59.90
2022-12-29T09:30:07.391Z,59.67
2022-12-29T09:32:36.068Z,59.41
2022-12-29T09:35:05.936Z,59.84
2022-12-29T09:37:32.426Z,60.14
2022-12-29T09:39:59.194Z,59.40
2022-12-29T09:42:49.515Z,59.29
2022-12-29T09:45:33.539Z,59.32
2022-12-29T09:48:03.033Z,60.00
2022-12-29T09:50:36.306Z,59.47
2022-12-29T09:53:16.434Z,60.25
2022-12-29T09:55:50.613Z,60.27
2022-12-29T09:58:37.295Z,59.79
2022-12-29T10:01:48.640Z,60.00
2022-12-29T10:04:19.528Z,60.20
2022-12-29T10:07:29.300Z,60.26
2022-12-29T10:10:08.485Z,60.87
2022-12-29T10:12:55.128Z,61.40
2022-12-29T10:15:46.456Z,60.74
2022-12-29T10:18:25.123Z,60.55
2022-12-29T10:20:51.612Z,60.41
2022-12-29T10:23:27.608Z,60.00
2022-12-29T10:25:58.841Z,60.69
2022-12-29T10:28:32.719Z,60.54
2022-12-29T10:31:08.354Z,60.98
2022-12-29T10:33:40.234Z,61.58
2022-12-29T10:36:14.357Z,63.71
2022-12-29T10:38:59.741Z,65.13
2022-12-29T10:41:47.410Z,64.82
2022-12-29T10:44:19.203Z,64.61
2022-12-29T10:47:49.786Z,65.44
2022-12-29T10:50:18.631Z,65.33
2022-12-29T10:52:45.201Z,64.47
2022-12-29T10:55:23.141Z,64.49
2022-12-29T10:57:50.638Z,64.80
2022-12-29T11:00:23.479Z,63.17
2022-12-29T11:03:21.918Z,63.87
2022-12-29T11:05:57.746Z,61.73
2022-12-29T11:08:34.329Z,62.18
2022-12-29T11:11:09.619Z,62.45
2022-12-29T11:13:48.224Z,63.43
2022-12-29T11:16:15.442Z,65.67
2022-12-29T11:18:47.820Z,68.17
2022-12-29T11:21:33.644Z,69.51
2022-12-29T11:24:20.653Z,71.19
2022-12-29T11:26:47.591Z,71.22
2022-12-29T11:29:17.091Z,72.63
2022-12-29T11:31:55.199Z,71.66
2022-12-29T11:34:26.044Z,71.90
2022-12-29T11:37:04.553Z,72.56
2022-12-29T11:39:52.995Z,72.04
2022-12-29T11:42:24.683Z,71.59
2022-12-29T11:44:52.372Z,69.61
2022-12-29T11:47:31.715Z,70.55
2022-12-29T11:50:01.590Z,70.11
2022-12-29T11:52:33.990Z,69.34
2022-12-29T11:55:02.681Z,70.62
2022-12-29T11:57:31.707Z,69.63
2022-12-29T12:00:02.216Z,70.36
2022-12-29T12:02:45.435Z,70.51
2022-12-29T12:05:39.003Z,72.00
2022-12-29T12:08:20.733Z,71.95
2022-12-29T12:10:57.525Z,72.79
2022-12-29T12:13:27.243Z,73.10
2022-12-29T12:16:10.493Z,74.21
2022-12-29T12:18:48.879Z,74.63
2022-12-29T12:21:21.243Z,75.94
2022-12-29T12:24:08.541Z,76.06
2022-12-29T12:26:50.209Z,74.94
2022-12-29T12:29:26.361Z,75.02
2022-12-29T12:32:24.860Z,75.25
2022-12-29T12:34:51.780Z,75.07
2022-12-29T12:37:30.652Z,75.70
2022-12-29T12:40:35.787Z,73.51
2022-12-29T12:43:45.182Z,73.28
2022-12-29T12:46:47.888Z,72.24
2022-12-29T12:49:27.272Z,73.57
2022-12-29T12:52:09.822Z,74.59
2022-12-29T12:55:15.227Z,73.57
2022-12-29T12:58:04.736Z,72.30
2022-12-29T13:00:41.214Z,72.52
2022-12-29T13:03:23.711Z,71.66
2022-12-29T13:06:23.946Z,71.04
2022-12-29T13:09:00.256Z,71.65
2022-12-29T13:11:35.468Z,72.22
2022-12-29T13:14:35.949Z,71.72
2022-12-29T13:17:25.611Z,73.03
2022-12-29T13:20:01.192Z,73.52
2022-12-29T13:23:01.003Z,73.01
2022-12-29T13:25:52.379Z,72.71
2022-12-29T13:28:31.746Z,73.36
2022-12-29T13:31:16.938Z,72.64
2022-12-29T13:34:13.095Z,70.45
2022-12-29T13:36:47.160Z,70.08
2022-12-29T13:39:21.375Z,70.50
2022-12-29T13:41:56.044Z,69.58
2022-12-29T13:44:49.254Z,69.68
2022-12-29T13:47:29.532Z,69.21
2022-12-29T13:49:59.000Z,68.39
2022-12-29T13:52:37.498Z,67.46
2022-12-29T13:55:29.057Z,68.61
2022-12-29T13:58:09.892Z,67.42
2022-12-29T14:00:59.186Z,67.93
2022-12-29T14:03:31.665Z,66.92
2022-12-29T14:06:17.215Z,66.82
2022-12-29T14:08:44.580Z,66.42
2022-12-29T14:11:12.703Z,67.33
2022-12-29T14:13:42.116Z,66.87
2022-12-29T14:16:22.889Z,67.31
2022-12-29T14:18:49.493Z,66.98
2022-12-29T14:21:29.478Z,67.06
2022-12-29T14:24:36.847Z,67.57
2022-12-29T14:27:13.027Z,66.34
2022-12-29T14:29:39.486Z,67.84
2022-12-29T14:32:27.754Z,66.80
2022-12-29T14:34:58.780Z,67.10
2022-12-29T14:37:28.109Z,67.00
2022-12-29T14:40:19.028Z,67.63
2022-12-29T14:42:49.664Z,66.10
2022-12-29T14:45:16.172Z,66.35
2022-12-29T14:47:45.613Z,66.19
2022-12-29T14:50:12.052Z,67.31
2022-12-29T14:53:02.476Z,66.84
2022-12-29T14:55:39.833Z,66.71
2022-12-29T14:58:15.372Z,66.77
2022-12-29T15:00:42.556Z,66.80
2022-12-29T15:03:17.799Z,67.51
2022-12-29T15:05:54.281Z,66.95
2022-12-29T15:08:25.024Z,67.04
2022-12-29T15:11:05.873Z,67.19
2022-12-29T15:13:43.312Z,68.51
2022-12-29T15:16:22.128Z,68.77
2022-12-29T15:18:48.648Z,69.09
2022-12-29T15:21:16.967Z,68.60
2022-12-29T15:23:45.912Z,68.58
2022-12-29T15:26:13.720Z,69.12
2022-12-29T15:28:42.993Z,66.56
2022-12-29T15:31:27.816Z,67.62
2022-12-29T15:34:09.762Z,67.01
2022-12-29T15:36:41.188Z,67.23
2022-12-29T15:39:21.616Z,67.60
2022-12-29T15:42:05.306Z,67.37
2022-12-29T15:44:44.366Z,67.51
2022-12-29T15:47:19.090Z,67.13
2022-12-29T15:49:50.041Z,67.49
2022-12-29T15:52:23.944Z,67.41
2022-12-29T15:54:54.332Z,67.86
2022-12-29T15:57:27.055Z,67.38
2022-12-29T15:59:57.443Z,67.03
2022-12-29T16:02:25.492Z,67.48
2022-12-29T16:05:16.582Z,67.12
2022-12-29T16:07:42.241Z,67.11
2022-12-29T16:10:47.956Z,67.54
2022-12-29T16:13:40.820Z,67.13
2022-12-29T16:16:17.480Z,67.65
2022-12-29T16:18:45.434Z,67.58
2022-12-29T16:21:23.484Z,67.54
2022-12-29T16:23:52.328Z,67.15
2022-12-29T16:26:20.810Z,67.04
2022-12-29T16:29:02.104Z,66.69
2022-12-29T16:32:01.573Z,67.01
2022-12-29T16:35:11.289Z,68.22
2022-12-29T16:37:38.673Z,68.16
2022-12-29T16:40:44.044Z,68.00
2022-12-29T16:43:47.813Z,68.29
2022-12-29T16:46:40.114Z,67.59
2022-12-29T16:49:23.746Z,68.15
2022-12-29T16:51:56.188Z,67.96
2022-12-29T16:54:51.748Z,68.41
2022-12-29T16:57:27.999Z,67.80
2022-12-29T17:00:06.385Z,66.74
2022-12-29T17:02:34.806Z,67.24
2022-12-29T17:05:01.753Z,66.76
2022-12-29T17:07:29.251Z,66.18
2022-12-29T17:09:55.865Z,66.30
2022-12-29T17:12:26.196Z,66.52
2022-12-29T17:14:58.746Z,67.29
2022-12-29T17:17:41.982Z,67.22
2022-12-29T17:20:19.242Z,65.90
2022-12-29T17:22:45.893Z,66.45
2022-12-29T17:25:51.031Z,66.21
2022-12-29T17:34:01.476Z,68.32
2022-12-29T17:36:32.474Z,68.50
2022-12-29T17:39:28.895Z,68.41
2022-12-29T17:41:59.977Z,67.71
2022-12-29T17:44:29.316Z,68.73
2022-12-29T17:46:55.982Z,68.11
2022-12-29T17:49:22.865Z,68.35
2022-12-29T17:51:49.573Z,69.20
2022-12-29T17:54:23.517Z,68.90
2022-12-29T17:56:50.416Z,67.12
2022-12-29T17:59:18.484Z,67.31
2022-12-29T18:01:47.329Z,66.78
2022-12-29T18:04:40.110Z,66.08
2022-12-29T18:07:11.499Z,66.82
2022-12-29T18:09:38.307Z,66.81
2022-12-29T18:12:06.129Z,67.04
2022-12-29T18:14:33.091Z,65.96
2022-12-29T18:19:45.032Z,65.38
2022-12-29T18:22:11.726Z,66.04
2022-12-29T18:24:39.853Z,66.73
2022-12-29T18:27:15.998Z,67.45
2022-12-29T18:29:42.499Z,66.73
2022-12-29T18:32:13.812Z,66.79
2022-12-29T18:34:41.768Z,66.53
2022-12-29T18:37:09.401Z,67.64
2022-12-29T18:42:19.919Z,69.23
2022-12-29T18:44:46.478Z,69.51
2022-12-29T18:47:13.064Z,69.41
2022-12-29T18:49:39.928Z,70.27
2022-12-29T18:52:06.568Z,70.17
2022-12-29T18:54:43.670Z,71.25
2022-12-29T18:57:10.482Z,71.72
2022-12-29T18:59:37.075Z,72.17
2022-12-29T19:02:04.129Z,71.27
2022-12-29T19:04:30.825Z,71.05
2022-12-29T19:06:57.579Z,72.11
2022-12-29T19:09:26.593Z,71.57
2022-12-29T19:11:53.266Z,71.79
2022-12-29T19:14:20.059Z,73.10
2022-12-29T19:16:47.352Z,74.15
2022-12-29T19:19:16.489Z,74.06
2022-12-29T19:21:44.276Z,74.47
2022-12-29T19:24:10.913Z,74.98
2022-12-29T19:26:40.904Z,75.61
2022-12-29T19:29:15.754Z,76.30
2022-12-29T19:31:42.847Z,76.89
2022-12-29T19:37:15.828Z,77.58
2022-12-29T19:39:42.875Z,77.39
2022-12-29T19:42:09.411Z,78.08
2022-12-29T19:44:36.307Z,78.09
2022-12-29T19:47:03.158Z,78.46
2022-12-29T19:49:30.306Z,78.53
2022-12-29T19:51:56.844Z,78.26
2022-12-29T19:54:23.705Z,78.87
2022-12-29T19:56:50.764Z,78.19
2022-12-29T19:59:17.454Z,78.29
2022-12-29T20:01:46.920Z,78.70
2022-12-29T20:04:13.715Z,79.52
2022-12-29T20:06:40.407Z,79.09
2022-12-29T20:09:07.330Z,79.00
2022-12-29T20:11:34.084Z,79.09
2022-12-29T20:14:01.117Z,78.12
2022-12-29T20:16:29.603Z,77.82
2022-12-29T20:18:56.228Z,77.93
2022-12-29T20:22:24.094Z,78.83
2022-12-29T20:24:53.927Z,78.49
2022-12-29T20:27:26.490Z,78.53
2022-12-29T20:29:53.182Z,78.83
2022-12-29T20:32:25.513Z,79.09
2022-12-29T20:34:54.384Z,78.84
2022-12-29T20:37:22.546Z,78.83
2022-12-29T20:39:49.245Z,79.11
2022-12-29T20:42:18.105Z,79.16
2022-12-29T20:44:45.272Z,79.74
2022-12-29T20:47:11.933Z,79.68
2022-12-29T20:49:38.717Z,79.45
2022-12-29T20:52:07.352Z,79.35
2022-12-29T20:54:39.201Z,79.27
2022-12-29T20:57:07.637Z,79.33
2022-12-29T20:59:34.186Z,78.83
2022-12-29T21:02:01.182Z,78.73
2022-12-29T21:04:38.405Z,78.99
2022-12-29T21:07:19.914Z,79.10
2022-12-29T21:09:50.261Z,80.23
2022-12-29T21:12:16.943Z,79.19
2022-12-29T21:14:45.858Z,80.34
2022-12-29T21:17:12.832Z,79.86
2022-12-29T21:19:39.504Z,80.05
2022-12-29T21:22:06.177Z,79.73
2022-12-29T21:24:32.748Z,79.98
2022-12-29T21:26:59.261Z,79.94
2022-12-29T21:29:26.663Z,80.23
2022-12-29T21:31:53.531Z,80.57
2022-12-29T21:34:48.096Z,80.00
2022-12-29T21:40:14.391Z,80.86
2022-12-29T21:42:40.896Z,79.85
2022-12-29T21:45:26.591Z,80.23
2022-12-29T21:48:13.277Z,80.42
2022-12-29T21:51:01.283Z,80.99
2022-12-29T21:53:39.735Z,80.30
2022-12-29T21:56:15.169Z,80.05
2022-12-29T21:59:03.744Z,80.22
2022-12-29T22:01:51.042Z,81.17
2022-12-29T22:04:38.962Z,80.36
2022-12-29T22:07:26.499Z,80.95
2022-12-29T22:10:11.836Z,80.68
2022-12-29T22:12:56.998Z,80.31
2022-12-29T22:15:23.936Z,80.30
2022-12-29T22:17:54.075Z,80.42
2022-12-29T22:20:23.555Z,80.34
2022-12-29T22:22:50.242Z,80.02
2022-12-29T22:25:16.948Z,79.47
2022-12-29T22:27:44.332Z,80.20
2022-12-29T22:30:11.416Z,80.45
2022-12-29T22:32:38.013Z,79.62
2022-12-29T22:35:08.014Z,80.13
2022-12-29T22:37:36.206Z,81.01
2022-12-29T22:40:04.557Z,80.69
2022-12-29T22:42:31.529Z,80.57
2022-12-29T22:44:58.074Z,80.84
2022-12-29T22:47:24.742Z,79.89
2022-12-29T22:49:51.233Z,80.55
2022-12-29T22:52:17.732Z,81.15
2022-12-29T22:54:44.240Z,80.57
2022-12-29T22:57:10.762Z,80.97
2022-12-29T22:59:37.271Z,80.40
2022-12-29T23:02:03.922Z,80.73
2022-12-29T23:07:17.143Z,80.65
2022-12-29T23:09:43.674Z,80.74
2022-12-29T23:12:10.201Z,79.29
2022-12-29T23:14:36.826Z,80.04
2022-12-29T23:17:03.358Z,79.93
2022-12-29T23:19:29.858Z,80.11
2022-12-29T23:21:56.479Z,80.81
2022-12-29T23:24:23.007Z,80.53
2022-12-29T23:26:50.601Z,80.36
2022-12-29T23:29:19.558Z,80.20
2022-12-29T23:31:48.249Z,79.12
2022-12-29T23:34:16.505Z,81.17
2022-12-29T23:36:43.220Z,80.53
2022-12-29T23:39:15.787Z,80.46
2022-12-29T23:41:42.320Z,80.45
2022-12-29T23:44:08.851Z,79.94
2022-12-29T23:46:36.848Z,79.93
2022-12-29T23:49:03.412Z,79.27
2022-12-29T23:51:29.928Z,80.00
2022-12-29T23:53:56.443Z,80.66
2022-12-29T23:56:23.623Z,80.39
2022-12-29T23:58:51.260Z,81.68
